CheckWX is a tool to help pilots better visualize weather data.  It is not intended as a substitute for an official pre-flight weather briefing.

00:26:14 UTC

KMDW METAR
Chicago Midway International Airport
Chicago, Illinois, USA
Current

33 mins ago

KMDW 052353Z 18005KT 10SM BKN130 BKN160 07/01 A2996 RMK AO2 SLP154 T00720006 10078 20061 58001
Observed
Dec-5 @ 23:53 UTC
Wind
  • 180° at 5 KTS
Visibility
10 SM
Flight Rules
VFR
Cloud Levels
  • Broken at 13,000' AGL
  • Broken at 16,000' AGL
Temperature
C / 45°F
Dewpoint
C / 34°F
Humidity
66%
Altimeter
29.96" Hg
Pressure
1014.52 hPa
Previous

2 hours ago

KMDW 052253Z 19006KT 10SM BKN150 BKN250 08/00 A2997 RMK AO2 SLP157 T00780000
Observed
Dec-5 @ 22:53 UTC
Wind
  • 190° at 6 KTS
Visibility
10 SM
Flight Rules
VFR
Cloud Levels
  • Broken at 15,000' AGL
  • Broken at 25,000' AGL
Temperature
C / 46°F
Dewpoint
C / 32°F
Humidity
57%
Altimeter
29.97" Hg
Pressure
1014.92 hPa
Previous

3 hours ago

KMDW 052153Z 19007KT 10SM FEW120 BKN180 BKN250 08/00 A2996 RMK AO2 SLP154 T00780000
Observed
Dec-5 @ 21:53 UTC
Wind
  • 190° at 7 KTS
Visibility
10 SM
Flight Rules
VFR
Cloud Levels
  • Few at 12,000' AGL
  • Broken at 18,000' AGL
  • Broken at 25,000' AGL
Temperature
C / 46°F
Dewpoint
C / 32°F
Humidity
57%
Altimeter
29.96" Hg
Pressure
1014.52 hPa